createdAt,value
2023-03-30T00:01:12.446Z,2.85
2023-03-30T00:03:40.750Z,3.10
2023-03-30T00:06:09.045Z,2.40
2023-03-30T00:08:37.825Z,3.00
2023-03-30T00:11:08.793Z,2.78
2023-03-30T00:13:38.732Z,2.80
2023-03-30T00:16:08.606Z,2.78
2023-03-30T00:18:39.363Z,2.80
2023-03-30T00:21:09.495Z,2.85
2023-03-30T00:23:37.889Z,2.83
2023-03-30T00:26:07.375Z,3.13
2023-03-30T00:28:35.480Z,3.20
2023-03-30T00:31:05.026Z,3.10
2023-03-30T00:33:44.680Z,3.42
2023-03-30T00:36:15.770Z,3.13
2023-03-30T00:38:44.130Z,3.30
2023-03-30T00:41:12.260Z,3.20
2023-03-30T00:43:56.228Z,3.10
2023-03-30T00:46:26.183Z,3.25
2023-03-30T00:48:57.802Z,3.33
2023-03-30T00:51:27.559Z,2.97
2023-03-30T00:53:58.849Z,2.85
2023-03-30T00:56:30.141Z,3.35
2023-03-30T00:58:58.588Z,3.13
2023-03-30T01:01:29.228Z,2.88
2023-03-30T01:04:02.165Z,2.70
2023-03-30T01:06:31.730Z,2.80
2023-03-30T01:09:00.712Z,2.95
2023-03-30T01:11:29.442Z,3.15
2023-03-30T01:14:01.342Z,3.03
2023-03-30T01:16:39.698Z,2.70
2023-03-30T01:19:30.040Z,3.00
2023-03-30T01:22:30.615Z,3.15
2023-03-30T01:25:20.567Z,2.90
2023-03-30T01:28:09.132Z,3.00
2023-03-30T01:31:01.114Z,3.33
2023-03-30T01:33:58.989Z,3.22
2023-03-30T01:37:01.463Z,3.47
2023-03-30T01:39:41.983Z,3.70
2023-03-30T01:42:20.032Z,2.92
2023-03-30T01:44:56.500Z,3.08
2023-03-30T01:47:31.507Z,3.28
2023-03-30T01:50:04.858Z,3.47
2023-03-30T01:52:38.732Z,3.38
2023-03-30T01:55:14.870Z,3.78
2023-03-30T01:57:49.043Z,3.40
2023-03-30T02:00:22.739Z,4.30
2023-03-30T02:02:54.799Z,3.80
2023-03-30T02:05:24.933Z,3.60
2023-03-30T02:07:57.080Z,3.85
2023-03-30T02:10:30.387Z,3.90
2023-03-30T02:13:01.026Z,3.75
2023-03-30T02:15:35.548Z,3.90
2023-03-30T02:18:04.877Z,4.35
2023-03-30T02:20:34.655Z,4.20
2023-03-30T02:23:06.020Z,4.60
2023-03-30T02:25:38.407Z,4.43
2023-03-30T02:28:07.908Z,4.15
2023-03-30T02:30:37.877Z,4.70
2023-03-30T02:33:07.472Z,4.32
2023-03-30T02:36:01.009Z,4.72
2023-03-30T02:38:55.754Z,4.00
2023-03-30T02:41:36.175Z,4.43
2023-03-30T02:44:15.057Z,4.38
2023-03-30T02:46:58.967Z,4.38
2023-03-30T02:49:39.736Z,3.78
2023-03-30T02:52:17.281Z,4.63
2023-03-30T02:54:50.060Z,3.78
2023-03-30T02:57:32.486Z,5.07
2023-03-30T03:02:35.453Z,3.25
2023-03-30T03:05:04.637Z,3.22
2023-03-30T03:07:33.899Z,3.38
2023-03-30T03:10:02.410Z,3.90
2023-03-30T03:12:31.870Z,3.95
2023-03-30T03:15:02.506Z,3.25
2023-03-30T03:17:34.779Z,3.53
2023-03-30T03:20:04.087Z,3.88
2023-03-30T03:22:32.434Z,3.90
2023-03-30T03:25:02.538Z,3.65
2023-03-30T03:27:32.451Z,3.28
2023-03-30T03:30:00.696Z,3.50
2023-03-30T03:32:28.822Z,4.00
2023-03-30T03:34:57.090Z,3.85
2023-03-30T03:37:25.178Z,4.32
2023-03-30T03:39:53.220Z,4.30
2023-03-30T03:42:21.187Z,4.28
2023-03-30T03:44:50.701Z,4.10
2023-03-30T03:47:18.875Z,4.60
2023-03-30T03:49:46.876Z,4.80
2023-03-30T03:52:14.900Z,4.97
2023-03-30T03:54:42.937Z,4.20
2023-03-30T03:57:10.998Z,4.20
2023-03-30T03:59:39.083Z,4.85
2023-03-30T04:02:08.504Z,5.30
2023-03-30T04:04:36.544Z,5.85
2023-03-30T04:07:05.668Z,5.93
2023-03-30T04:09:33.712Z,5.68
2023-03-30T04:12:01.711Z,6.95
2023-03-30T04:14:29.758Z,7.35
2023-03-30T04:16:58.200Z,7.22
2023-03-30T04:19:31.390Z,7.20
2023-03-30T04:21:59.414Z,7.00
2023-03-30T04:24:29.822Z,7.20
2023-03-30T04:26:58.658Z,6.85
2023-03-30T04:29:26.689Z,7.25
2023-03-30T04:31:56.682Z,6.70
2023-03-30T04:34:24.684Z,6.35
2023-03-30T04:36:54.267Z,7.57
2023-03-30T04:39:22.284Z,8.25
2023-03-30T04:41:52.286Z,6.88
2023-03-30T04:44:22.030Z,6.50
2023-03-30T04:46:50.082Z,7.93
2023-03-30T04:49:18.035Z,6.40
2023-03-30T04:51:46.048Z,6.88
2023-03-30T04:54:15.528Z,6.38
2023-03-30T04:56:43.559Z,5.93
2023-03-30T04:59:12.111Z,6.50
2023-03-30T05:01:40.116Z,7.10
2023-03-30T05:04:08.415Z,6.45
2023-03-30T05:06:36.460Z,6.55
2023-03-30T05:09:05.315Z,6.50
2023-03-30T05:11:35.014Z,7.00
2023-03-30T05:14:03.318Z,7.45
2023-03-30T05:16:31.429Z,7.18
2023-03-30T05:18:59.530Z,7.40
2023-03-30T05:21:27.482Z,8.23
2023-03-30T05:23:55.727Z,8.40
2023-03-30T05:26:24.102Z,7.88
2023-03-30T05:28:53.650Z,8.25
2023-03-30T05:31:22.425Z,8.85
2023-03-30T05:33:52.020Z,9.57
2023-03-30T05:36:20.628Z,8.70
2023-03-30T05:38:48.843Z,8.90
2023-03-30T05:41:17.354Z,8.43
2023-03-30T05:43:45.743Z,8.05
2023-03-30T05:46:15.490Z,9.13
2023-03-30T05:48:43.711Z,10.32
2023-03-30T05:51:12.749Z,10.80
2023-03-30T05:53:40.757Z,9.77
2023-03-30T05:56:10.446Z,9.45
2023-03-30T05:58:38.454Z,10.35
2023-03-30T06:01:06.925Z,10.15
2023-03-30T06:03:36.613Z,10.55
2023-03-30T06:06:05.159Z,9.00
2023-03-30T06:08:33.225Z,9.20
2023-03-30T06:11:02.011Z,8.30
2023-03-30T06:13:30.468Z,8.93
2023-03-30T06:15:59.684Z,9.23
2023-03-30T06:18:29.508Z,8.82
2023-03-30T06:20:59.002Z,9.15
2023-03-30T06:23:27.087Z,9.48
2023-03-30T06:25:55.614Z,8.35
2023-03-30T06:28:24.105Z,8.85
2023-03-30T06:30:52.157Z,8.10
2023-03-30T06:33:20.419Z,8.32
2023-03-30T06:35:49.615Z,9.95
2023-03-30T06:38:20.111Z,9.57
2023-03-30T06:40:48.320Z,9.23
2023-03-30T06:43:18.068Z,8.85
2023-03-30T06:45:51.037Z,10.20
2023-03-30T06:48:22.497Z,9.18
2023-03-30T06:50:51.549Z,9.10
2023-03-30T06:53:21.513Z,9.18
2023-03-30T06:55:53.190Z,9.48
2023-03-30T06:58:21.739Z,8.48
2023-03-30T07:00:50.398Z,8.77
2023-03-30T07:03:19.552Z,8.40
2023-03-30T07:05:49.087Z,8.73
2023-03-30T07:08:18.312Z,8.02
2023-03-30T07:10:48.836Z,7.22
2023-03-30T07:13:17.829Z,8.52
2023-03-30T07:15:46.970Z,8.07
2023-03-30T07:18:15.028Z,8.05
2023-03-30T07:20:43.159Z,8.07
2023-03-30T07:23:11.641Z,8.02
2023-03-30T07:25:39.994Z,8.57
2023-03-30T07:28:10.082Z,8.82
2023-03-30T07:30:39.224Z,8.95
2023-03-30T07:33:07.630Z,9.50
2023-03-30T07:35:35.986Z,9.55
2023-03-30T07:38:04.250Z,9.35
2023-03-30T07:40:32.699Z,9.77
2023-03-30T07:43:00.780Z,9.75
2023-03-30T07:45:30.142Z,9.00
2023-03-30T07:47:58.231Z,10.65
2023-03-30T07:50:26.535Z,10.50
2023-03-30T07:52:54.572Z,9.85
2023-03-30T07:55:22.950Z,9.30
2023-03-30T07:57:51.065Z,10.10
2023-03-30T08:00:21.705Z,8.75
2023-03-30T08:02:51.816Z,9.80
2023-03-30T08:05:20.171Z,10.05
2023-03-30T08:07:48.225Z,9.20
2023-03-30T08:10:16.253Z,9.82
2023-03-30T08:12:44.258Z,9.98
2023-03-30T08:15:12.922Z,10.10
2023-03-30T08:17:41.334Z,8.90
2023-03-30T08:20:12.627Z,9.65
2023-03-30T08:22:41.087Z,9.80
2023-03-30T08:25:09.729Z,9.48
2023-03-30T08:27:37.770Z,9.40
2023-03-30T08:30:06.978Z,9.32
2023-03-30T08:32:34.964Z,9.32
2023-03-30T08:35:03.000Z,9.15
2023-03-30T08:37:32.398Z,9.77
2023-03-30T08:40:00.646Z,9.57
2023-03-30T08:42:50.529Z,8.77
2023-03-30T08:45:18.699Z,9.40
2023-03-30T08:47:50.999Z,8.70
2023-03-30T08:52:53.006Z,8.70
2023-03-30T08:55:25.398Z,8.73
2023-03-30T08:57:59.367Z,9.07
2023-03-30T09:00:37.064Z,8.27
2023-03-30T09:03:12.581Z,9.35
2023-03-30T09:05:46.715Z,8.85
2023-03-30T09:08:21.137Z,8.38
2023-03-30T09:10:53.773Z,9.07
2023-03-30T09:13:26.442Z,9.38
2023-03-30T09:16:00.229Z,9.70
2023-03-30T09:18:31.358Z,9.32
2023-03-30T09:21:01.375Z,10.10
2023-03-30T09:23:32.141Z,9.02
2023-03-30T09:26:09.043Z,9.35
2023-03-30T09:28:48.159Z,8.85
2023-03-30T09:31:22.300Z,8.55
2023-03-30T09:33:59.174Z,8.00
2023-03-30T09:36:33.466Z,8.80
2023-03-30T09:39:02.962Z,8.07
2023-03-30T09:41:43.218Z,8.25
2023-03-30T09:44:20.048Z,7.25
2023-03-30T09:46:49.995Z,8.25
2023-03-30T09:49:18.371Z,7.85
2023-03-30T09:52:01.448Z,8.60
2023-03-30T09:54:38.509Z,8.15
2023-03-30T09:57:07.438Z,7.95
2023-03-30T09:59:37.636Z,8.77
2023-03-30T10:02:21.311Z,9.35
2023-03-30T10:05:02.374Z,8.75
2023-03-30T10:07:33.892Z,8.77
2023-03-30T10:10:14.519Z,7.77
2023-03-30T10:12:42.800Z,8.07
2023-03-30T10:15:17.312Z,8.60
2023-03-30T10:17:48.338Z,7.68
2023-03-30T10:20:29.788Z,8.82
2023-03-30T10:23:03.342Z,8.70
2023-03-30T10:25:35.095Z,7.25
2023-03-30T10:28:07.240Z,8.27
2023-03-30T10:30:35.800Z,7.35
2023-03-30T10:33:04.280Z,6.68
2023-03-30T10:35:37.185Z,8.70
2023-03-30T10:38:07.587Z,8.75
2023-03-30T10:40:39.480Z,8.07
2023-03-30T10:43:13.760Z,8.23
2023-03-30T10:45:45.832Z,7.78
2023-03-30T10:48:30.074Z,8.43
2023-03-30T10:51:07.735Z,7.75
2023-03-30T10:53:44.993Z,7.28
2023-03-30T10:56:35.947Z,7.30
2023-03-30T10:59:25.228Z,7.20
2023-03-30T11:02:11.495Z,7.57
2023-03-30T11:04:44.617Z,6.80
2023-03-30T11:07:18.998Z,7.90
2023-03-30T11:09:53.745Z,8.40
2023-03-30T11:12:27.779Z,7.45
2023-03-30T11:15:01.714Z,8.63
2023-03-30T11:17:34.090Z,7.68
2023-03-30T11:20:11.381Z,6.97
2023-03-30T11:22:46.578Z,8.05
2023-03-30T11:25:20.886Z,8.07
2023-03-30T11:27:58.000Z,8.50
2023-03-30T11:30:29.685Z,8.60
2023-03-30T11:33:04.121Z,9.07
2023-03-30T11:35:37.414Z,8.48
2023-03-30T11:38:12.777Z,10.20
2023-03-30T11:40:46.346Z,8.25
2023-03-30T11:43:17.617Z,9.90
2023-03-30T11:46:04.284Z,7.93
2023-03-30T11:49:05.620Z,8.35
2023-03-30T11:51:54.496Z,9.07
2023-03-30T11:55:02.403Z,9.18
2023-03-30T11:57:38.112Z,8.80
2023-03-30T12:00:26.687Z,9.40
2023-03-30T12:03:05.413Z,9.38
2023-03-30T12:05:36.509Z,9.38
2023-03-30T12:08:18.435Z,10.00
2023-03-30T12:10:52.241Z,8.80
2023-03-30T12:13:21.559Z,9.73
2023-03-30T12:15:56.555Z,9.23
2023-03-30T12:18:33.392Z,9.60
2023-03-30T12:21:13.024Z,9.73
2023-03-30T12:23:48.891Z,9.90
2023-03-30T12:26:26.728Z,10.60
2023-03-30T12:32:05.416Z,12.25
2023-03-30T12:34:36.327Z,10.60
2023-03-30T12:37:09.918Z,10.52
2023-03-30T12:39:44.912Z,10.77
2023-03-30T12:42:26.394Z,9.88
2023-03-30T12:45:26.682Z,10.23
2023-03-30T12:48:14.428Z,9.35
2023-03-30T12:50:55.689Z,9.82
2023-03-30T12:53:56.931Z,11.38
2023-03-30T12:56:34.128Z,9.93
2023-03-30T12:59:25.623Z,10.68
2023-03-30T13:02:15.051Z,9.95
2023-03-30T13:04:49.064Z,8.40
2023-03-30T13:07:21.767Z,9.82
2023-03-30T13:09:56.874Z,9.65
2023-03-30T13:12:41.509Z,8.93
2023-03-30T13:15:35.529Z,9.40
2023-03-30T13:18:05.870Z,8.43
2023-03-30T13:20:36.737Z,8.23
2023-03-30T13:23:27.230Z,8.63
2023-03-30T13:26:05.942Z,8.25
2023-03-30T13:28:56.954Z,7.80
2023-03-30T13:32:09.970Z,8.43
2023-03-30T13:35:06.208Z,8.20
2023-03-30T13:37:54.858Z,7.38
2023-03-30T13:40:41.578Z,7.72
2023-03-30T13:43:19.376Z,8.05
2023-03-30T13:46:00.409Z,7.95
2023-03-30T13:48:52.185Z,7.32
2023-03-30T13:51:25.756Z,8.07
2023-03-30T13:53:59.378Z,7.93
2023-03-30T13:56:28.564Z,7.95
2023-03-30T13:59:04.360Z,7.03
2023-03-30T14:01:33.134Z,7.25
2023-03-30T14:04:04.644Z,7.40
2023-03-30T14:06:35.518Z,7.35
2023-03-30T14:09:14.078Z,6.80
2023-03-30T14:11:45.603Z,7.20
2023-03-30T14:14:20.524Z,7.22
2023-03-30T14:16:48.921Z,6.93
2023-03-30T14:19:23.840Z,6.93
2023-03-30T14:21:55.046Z,6.88
2023-03-30T14:24:31.977Z,7.07
2023-03-30T14:27:03.810Z,6.97
2023-03-30T14:29:32.614Z,6.45
2023-03-30T14:32:08.976Z,6.47
2023-03-30T14:34:38.303Z,6.50
2023-03-30T14:37:08.727Z,6.70
2023-03-30T14:39:42.618Z,6.85
2023-03-30T14:42:18.817Z,6.70
2023-03-30T14:44:49.299Z,6.72
2023-03-30T14:47:21.110Z,6.65
2023-03-30T14:49:50.057Z,5.70
2023-03-30T14:52:20.193Z,6.38
2023-03-30T14:55:05.213Z,6.10
2023-03-30T14:57:38.029Z,5.40
2023-03-30T15:00:21.017Z,5.50
2023-03-30T15:02:53.313Z,5.53
2023-03-30T15:07:52.225Z,5.68
2023-03-30T15:10:28.003Z,6.05
2023-03-30T15:12:59.093Z,5.18
2023-03-30T15:15:31.335Z,5.40
2023-03-30T15:18:00.810Z,6.22
2023-03-30T15:20:30.963Z,5.63
2023-03-30T15:23:01.071Z,5.65
2023-03-30T15:25:35.665Z,6.10
2023-03-30T15:28:06.649Z,6.30
2023-03-30T15:30:39.142Z,5.45
2023-03-30T15:33:08.229Z,5.72
2023-03-30T15:35:38.371Z,5.72
2023-03-30T15:38:17.386Z,5.38
2023-03-30T15:40:50.122Z,5.85
2023-03-30T15:43:25.269Z,6.00
2023-03-30T15:45:56.016Z,5.97
2023-03-30T15:48:28.818Z,5.80
2023-03-30T15:51:03.281Z,6.00
2023-03-30T15:53:40.980Z,5.45
2023-03-30T15:56:14.530Z,5.00
2023-03-30T15:58:43.848Z,4.95
2023-03-30T16:01:15.399Z,5.13
2023-03-30T16:03:52.329Z,5.30
2023-03-30T16:06:22.075Z,4.95
2023-03-30T16:08:50.182Z,4.70
2023-03-30T16:11:20.662Z,4.40
2023-03-30T16:13:49.960Z,4.88
2023-03-30T16:16:18.907Z,4.93
2023-03-30T16:18:48.394Z,5.07
2023-03-30T16:21:18.470Z,5.35
2023-03-30T16:23:46.710Z,4.68
2023-03-30T16:26:14.987Z,4.63
2023-03-30T16:28:44.741Z,5.50
2023-03-30T16:31:17.623Z,4.93
2023-03-30T16:33:46.152Z,5.65
2023-03-30T16:36:16.329Z,5.05
2023-03-30T16:38:44.943Z,5.55
2023-03-30T16:41:17.261Z,5.15
2023-03-30T16:43:46.840Z,5.00
2023-03-30T16:46:15.653Z,5.55
2023-03-30T16:48:43.828Z,5.03
2023-03-30T16:51:12.244Z,5.32
2023-03-30T16:53:40.637Z,5.53
2023-03-30T16:56:14.993Z,5.03
2023-03-30T16:58:42.967Z,4.93
2023-03-30T17:01:15.807Z,4.80
2023-03-30T17:03:43.874Z,5.63
2023-03-30T17:06:11.980Z,5.32
2023-03-30T17:08:42.411Z,5.28
2023-03-30T17:11:13.551Z,4.88
2023-03-30T17:13:41.756Z,5.20
2023-03-30T17:16:12.627Z,4.85
2023-03-30T17:18:42.154Z,4.65
2023-03-30T17:21:16.228Z,5.35
2023-03-30T17:23:45.550Z,5.18
2023-03-30T17:26:13.670Z,5.60
2023-03-30T17:28:42.131Z,5.18
2023-03-30T17:31:16.985Z,5.65
2023-03-30T17:33:47.202Z,5.60
2023-03-30T17:36:20.399Z,5.63
2023-03-30T17:38:49.402Z,5.90
2023-03-30T17:41:19.697Z,5.72
2023-03-30T17:43:48.989Z,5.78
2023-03-30T17:46:19.586Z,6.10
2023-03-30T17:48:51.159Z,5.95
2023-03-30T17:51:19.578Z,6.20
2023-03-30T17:53:47.913Z,5.55
2023-03-30T17:56:16.007Z,6.47
2023-03-30T17:58:44.187Z,5.32
2023-03-30T18:01:13.834Z,5.53
2023-03-30T18:03:42.671Z,5.75
2023-03-30T18:06:13.842Z,5.68
2023-03-30T18:08:43.020Z,6.57
2023-03-30T18:11:11.309Z,6.22
2023-03-30T18:13:39.329Z,5.60
2023-03-30T18:16:07.844Z,6.32
2023-03-30T18:18:36.076Z,6.47
2023-03-30T18:21:08.975Z,5.55
2023-03-30T18:23:38.649Z,6.60
2023-03-30T18:26:11.211Z,5.68
2023-03-30T18:28:42.537Z,6.63
2023-03-30T18:31:10.931Z,6.30
2023-03-30T18:33:39.373Z,6.18
2023-03-30T18:36:12.604Z,6.32
2023-03-30T18:38:42.766Z,6.85
2023-03-30T18:41:12.756Z,7.25
2023-03-30T18:43:40.759Z,7.35
2023-03-30T18:46:12.451Z,7.00
2023-03-30T18:48:40.516Z,7.25
2023-03-30T18:51:10.492Z,7.28
2023-03-30T18:53:38.488Z,8.50
2023-03-30T18:56:10.369Z,7.75
2023-03-30T18:58:42.051Z,7.47
2023-03-30T19:01:12.664Z,8.52
2023-03-30T19:03:41.768Z,8.25
2023-03-30T19:06:13.820Z,8.45
2023-03-30T19:08:43.559Z,8.10
2023-03-30T19:11:17.603Z,8.13
2023-03-30T19:13:47.074Z,8.48
2023-03-30T19:16:16.647Z,9.05
2023-03-30T19:18:44.762Z,9.10
2023-03-30T19:21:16.209Z,7.80
2023-03-30T19:23:44.198Z,8.73
2023-03-30T19:26:13.757Z,8.10
2023-03-30T19:28:41.741Z,8.70
2023-03-30T19:31:13.331Z,9.02
2023-03-30T19:33:41.606Z,9.02
2023-03-30T19:36:11.016Z,8.63
2023-03-30T19:38:39.270Z,9.23
2023-03-30T19:41:07.926Z,9.20
2023-03-30T19:43:37.601Z,9.40
2023-03-30T19:46:06.044Z,9.23
2023-03-30T19:48:34.319Z,9.18
2023-03-30T19:51:02.435Z,10.57
2023-03-30T19:53:30.603Z,9.63
2023-03-30T19:55:58.629Z,9.35
2023-03-30T19:58:26.706Z,10.10
2023-03-30T20:00:57.473Z,9.20
2023-03-30T20:03:26.606Z,8.95
2023-03-30T20:05:55.161Z,8.82
2023-03-30T20:08:24.190Z,9.77
2023-03-30T20:10:52.654Z,9.02
2023-03-30T20:13:22.040Z,9.70
2023-03-30T20:15:54.267Z,9.35
2023-03-30T20:18:23.802Z,10.20
2023-03-30T20:20:51.827Z,9.38
2023-03-30T20:23:20.148Z,9.77
2023-03-30T20:25:49.478Z,9.25
2023-03-30T20:28:18.210Z,9.52
2023-03-30T20:30:46.236Z,9.00
2023-03-30T20:33:14.447Z,9.70
2023-03-30T20:35:44.102Z,9.35
2023-03-30T20:38:12.146Z,10.00
2023-03-30T20:40:40.127Z,10.77
2023-03-30T20:43:10.240Z,8.93
2023-03-30T20:45:48.125Z,8.80
2023-03-30T20:48:26.349Z,10.00
2023-03-30T20:50:56.729Z,10.07
2023-03-30T20:53:25.518Z,10.65
2023-03-30T20:55:53.566Z,10.00
2023-03-30T20:58:23.250Z,10.63
2023-03-30T21:00:53.051Z,10.68
2023-03-30T21:03:21.613Z,10.63
2023-03-30T21:06:02.106Z,9.13
2023-03-30T21:08:31.399Z,9.43
2023-03-30T21:10:59.967Z,10.05
2023-03-30T21:13:28.027Z,8.43
2023-03-30T21:15:59.281Z,10.05
2023-03-30T21:18:27.647Z,10.95
2023-03-30T21:20:56.171Z,9.18
2023-03-30T21:23:26.769Z,10.00
2023-03-30T21:25:58.467Z,10.93
2023-03-30T21:28:28.569Z,10.30
2023-03-30T21:30:57.754Z,10.52
2023-03-30T21:33:26.830Z,9.77
2023-03-30T21:35:56.657Z,10.30
2023-03-30T21:38:28.122Z,10.27
2023-03-30T21:41:01.384Z,9.55
2023-03-30T21:43:31.009Z,10.20
2023-03-30T21:46:00.513Z,11.45
2023-03-30T21:48:30.731Z,10.02
2023-03-30T21:51:00.240Z,9.30
2023-03-30T21:53:30.924Z,9.38
2023-03-30T21:56:00.026Z,10.77
2023-03-30T21:58:28.936Z,8.95
2023-03-30T22:01:09.079Z,9.10
2023-03-30T22:03:40.775Z,9.77
2023-03-30T22:06:10.533Z,9.13
2023-03-30T22:08:39.984Z,9.35
2023-03-30T22:11:09.794Z,8.52
2023-03-30T22:13:38.182Z,8.10
2023-03-30T22:16:08.271Z,8.77
2023-03-30T22:18:36.451Z,8.77
2023-03-30T22:21:07.312Z,9.10
2023-03-30T22:23:35.524Z,8.52
2023-03-30T22:26:05.150Z,9.80
2023-03-30T22:28:33.231Z,8.75
2023-03-30T22:31:02.359Z,8.00
2023-03-30T22:33:30.510Z,9.35
2023-03-30T22:35:59.961Z,9.10
2023-03-30T22:38:28.993Z,9.07
2023-03-30T22:41:04.646Z,10.05
2023-03-30T22:43:36.221Z,11.25
2023-03-30T22:46:05.319Z,11.05
2023-03-30T22:48:34.223Z,11.00
2023-03-30T22:51:03.259Z,10.63
2023-03-30T22:53:31.988Z,11.27
2023-03-30T22:56:00.064Z,11.50
2023-03-30T22:58:28.585Z,10.32
2023-03-30T23:01:02.785Z,10.80
2023-03-30T23:03:31.025Z,10.43
2023-03-30T23:06:01.135Z,8.90
2023-03-30T23:08:32.085Z,9.30
2023-03-30T23:11:04.847Z,8.38
2023-03-30T23:13:37.578Z,8.77
2023-03-30T23:16:08.448Z,9.25
2023-03-30T23:18:36.858Z,10.60
2023-03-30T23:21:06.780Z,10.40
2023-03-30T23:23:36.566Z,9.30
2023-03-30T23:26:09.109Z,10.50
2023-03-30T23:28:39.255Z,10.85
2023-03-30T23:31:13.051Z,11.80
2023-03-30T23:33:41.433Z,10.93
2023-03-30T23:36:10.450Z,9.40
2023-03-30T23:38:38.828Z,8.88
2023-03-30T23:41:07.656Z,10.27
2023-03-30T23:43:35.785Z,9.70
2023-03-30T23:46:04.279Z,10.55
2023-03-30T23:48:34.328Z,11.23
2023-03-30T23:51:02.325Z,8.77
2023-03-30T23:53:30.376Z,9.15
2023-03-30T23:55:59.746Z,9.73
2023-03-30T23:58:27.877Z,10.98
